Time;durP1;ratioP1;P1;durP2;ratioP2;P2;SDS_P1;SDS_P2;PMS_P1;PMS_P2;Temp;Humidity;BMP_temperature;BMP_pressure;BME280_temperature;BME280_humidity;BME280_pressure;Samples;Min_cycle;Max_cycle;Signal;HPM_P1;HPM_P2
2022/01/05 00:01:24;;;;;;;;;1.00;0.00;;;;;9.41;56.19;100364.75;5019384;28;45222;-61
2022/01/05 00:03:49;;;;;;;;;2.75;0.50;;;;;9.39;56.21;100371.09;5018156;28;45320;-61
2022/01/05 00:06:15;;;;;;;;;1.00;1.00;;;;;9.43;56.39;100378.03;5026522;28;46026;-61
2022/01/05 00:08:40;;;;;;;;;1.00;1.00;;;;;9.43;56.39;100376.22;5017740;28;46074;-61
2022/01/05 00:11:07;;;;;;;;;1.00;1.00;;;;;9.43;56.07;100381.56;5024719;28;45318;-61
2022/01/05 00:13:32;;;;;;;;;1.00;1.00;;;;;9.42;56.57;100384.28;5024580;28;45706;-61
2022/01/05 00:15:58;;;;;;;;;2.25;1.00;;;;;9.44;56.57;100385.13;5018827;28;45218;-61
2022/01/05 00:18:23;;;;;;;;;2.25;1.00;;;;;9.38;56.45;100385.31;5018810;28;45294;-61
2022/01/05 00:20:49;;;;;;;;;2.00;1.75;;;;;9.35;56.20;100380.09;5021252;28;45492;-61
2022/01/05 00:23:14;;;;;;;;;2.00;2.00;;;;;9.31;55.66;100384.66;5007581;28;45581;-61
2022/01/05 00:25:39;;;;;;;;;2.00;0.25;;;;;9.26;55.53;100390.13;5012794;28;45416;-61
2022/01/05 00:28:05;;;;;;;;;2.50;1.75;;;;;9.23;55.51;100378.69;5018993;28;45414;-61
2022/01/05 00:30:31;;;;;;;;;2.00;1.00;;;;;9.30;54.60;100393.53;5005978;28;45348;-61
2022/01/05 00:32:56;;;;;;;;;1.00;1.00;;;;;9.25;55.42;100393.72;5014997;28;45614;-61
2022/01/05 00:35:22;;;;;;;;;0.25;0.00;;;;;9.26;55.45;100398.09;5031413;28;45380;-61
2022/01/05 00:37:47;;;;;;;;;2.00;1.00;;;;;9.22;55.17;100393.81;5022446;28;46416;-61
2022/01/05 00:40:12;;;;;;;;;1.00;1.00;;;;;9.21;54.64;100385.88;5020754;28;45412;-61
2022/01/05 00:42:38;;;;;;;;;1.00;1.00;;;;;9.20;54.81;100406.28;5019739;28;45491;-61
2022/01/05 00:45:03;;;;;;;;;0.75;0.00;;;;;9.16;54.94;100412.66;5020988;28;47960;-61
2022/01/05 00:47:29;;;;;;;;;1.00;1.00;;;;;9.17;55.39;100397.53;5020441;28;45399;-61
2022/01/05 00:49:54;;;;;;;;;1.00;1.00;;;;;9.21;55.36;100409.84;5018994;28;45440;-61
2022/01/05 00:52:20;;;;;;;;;1.50;1.25;;;;;9.20;55.23;100408.09;5013921;28;45549;-61
2022/01/05 00:54:45;;;;;;;;;3.75;2.25;;;;;9.17;54.85;100409.06;5024841;28;46214;-61
2022/01/05 00:57:11;;;;;;;;;2.25;1.25;;;;;9.21;54.86;100420.50;5029249;28;45210;-61
2022/01/05 00:59:37;;;;;;;;;0.50;0.50;;;;;9.23;54.71;100430.16;5023492;28;45345;-61
2022/01/05 01:02:02;;;;;;;;;1.50;1.50;;;;;9.23;54.67;100418.66;5039302;28;45381;-61
2022/01/05 01:04:28;;;;;;;;;1.00;1.00;;;;;9.26;55.16;100434.53;5012212;28;45927;-61
2022/01/05 01:06:53;;;;;;;;;3.00;1.00;;;;;9.30;55.25;100440.63;5021494;28;45237;-61
2022/01/05 01:09:18;;;;;;;;;0.75;0.75;;;;;9.27;55.33;100437.16;5022297;28;45386;-61
2022/01/05 01:11:44;;;;;;;;;5.00;2.00;;;;;9.28;54.86;100438.88;5020379;28;45449;-61
2022/01/05 01:14:10;;;;;;;;;2.75;1.00;;;;;9.26;54.63;100440.72;5023249;28;45238;-61
2022/01/05 01:16:35;;;;;;;;;0.75;0.75;;;;;9.27;54.86;100452.25;5020396;28;45385;-61
2022/01/05 01:19:01;;;;;;;;;1.00;1.00;;;;;9.28;54.91;100451.31;5021726;28;45337;-61
2022/01/05 01:21:26;;;;;;;;;2.00;1.00;;;;;9.27;54.70;100447.81;5021533;28;45210;-61
2022/01/05 01:23:55;;;;;;;;;2.75;1.50;;;;;9.30;55.12;100457.47;5018458;28;46147;-61
2022/01/05 01:26:25;;;;;;;;;3.00;2.00;;;;;9.30;54.94;100449.47;5015796;28;45695;-61
2022/01/05 01:28:51;;;;;;;;;0.75;0.50;;;;;9.20;55.10;100448.91;5024439;28;45471;-61
2022/01/05 01:31:17;;;;;;;;;2.75;2.75;;;;;9.27;55.31;100474.44;5021189;28;45372;-61
2022/01/05 01:33:42;;;;;;;;;1.00;1.00;;;;;9.23;55.08;100466.59;5020225;28;45342;-61
2022/01/05 01:36:08;;;;;;;;;1.00;0.25;;;;;9.27;55.07;100476.22;5020689;28;45355;-61
2022/01/05 01:38:33;;;;;;;;;1.00;1.00;;;;;9.24;54.78;100471.88;5002895;28;45622;-61
2022/01/05 01:40:58;;;;;;;;;0.25;0.25;;;;;9.25;55.11;100481.63;5022135;28;46100;-61
2022/01/05 01:43:24;;;;;;;;;1.00;1.00;;;;;9.23;54.52;100483.44;5018206;28;45884;-61
2022/01/05 01:45:49;;;;;;;;;1.25;1.00;;;;;9.27;54.56;100479.75;5026477;28;45309;-61
2022/01/05 01:48:14;;;;;;;;;2.00;1.00;;;;;9.26;54.74;100493.13;5024409;28;45502;-61
2022/01/05 01:50:40;;;;;;;;;2.50;1.00;;;;;9.27;55.07;100503.75;5015181;28;45559;-61
2022/01/05 01:53:05;;;;;;;;;1.00;1.00;;;;;9.24;54.52;100511.81;4998871;28;48161;-61
2022/01/05 01:55:31;;;;;;;;;3.00;1.00;;;;;9.21;54.89;100509.25;5015923;28;45389;-61
2022/01/05 01:57:56;;;;;;;;;1.00;0.00;;;;;9.23;54.43;100510.06;4999373;28;45370;-61
2022/01/05 02:00:22;;;;;;;;;1.00;1.00;;;;;9.18;54.55;100506.66;5000896;28;45544;-61
2022/01/05 02:02:47;;;;;;;;;2.00;2.00;;;;;9.17;54.20;100512.03;5001163;28;45368;-61
2022/01/05 02:05:13;;;;;;;;;0.50;0.50;;;;;9.18;54.39;100517.31;5000431;28;45261;-61
2022/01/05 02:07:39;;;;;;;;;1.25;1.00;;;;;9.19;54.04;100527.06;5002778;28;45357;-61
2022/01/05 02:10:07;;;;;;;;;0.25;0.25;;;;;9.16;54.30;100529.81;5005937;28;45553;-61
2022/01/05 02:12:33;;;;;;;;;2.00;0.00;;;;;9.18;54.19;100540.44;5005536;28;45712;-61
2022/01/05 02:14:58;;;;;;;;;3.00;0.00;;;;;9.17;54.18;100539.56;5000321;28;45316;-61
2022/01/05 02:17:41;;;;;;;;;0.25;0.25;;;;;9.19;54.11;100545.72;5015377;28;45314;-61
2022/01/05 02:20:21;;;;;;;;;2.00;1.00;;;;;9.19;54.17;100544.84;5023693;28;46050;-61
2022/01/05 02:22:47;;;;;;;;;5.00;1.00;;;;;9.22;54.30;100540.28;4995074;28;45360;-61
2022/01/05 02:25:13;;;;;;;;;3.00;1.00;;;;;9.22;53.89;100550.94;5000014;28;45554;-61
2022/01/05 02:27:43;;;;;;;;;0.00;0.00;;;;;9.27;54.20;100550.78;5000334;28;45238;-61
2022/01/05 02:30:11;;;;;;;;;1.00;1.00;;;;;9.28;53.87;100563.19;5000480;28;45787;-61
2022/01/05 02:32:37;;;;;;;;;1.00;1.00;;;;;9.27;53.89;100561.44;4999036;28;46635;-61
2022/01/05 02:35:04;;;;;;;;;1.25;1.00;;;;;9.22;53.87;100561.59;5011603;28;45468;-61
2022/01/05 02:37:29;;;;;;;;;2.25;1.00;;;;;9.23;53.59;100560.66;5022153;28;45467;-61
2022/01/05 02:39:54;;;;;;;;;2.75;2.00;;;;;9.22;53.32;100558.94;5000186;28;45550;-62
2022/01/05 02:42:30;;;;;;;;;0.75;0.75;;;;;9.23;53.62;100543.81;4998798;28;45459;-61
2022/01/05 02:44:58;;;;;;;;;1.25;1.00;;;;;9.25;53.51;100557.97;5000164;28;45550;-61
2022/01/05 02:47:23;;;;;;;;;1.00;1.00;;;;;9.27;53.35;100551.69;4999502;28;45423;-61
2022/01/05 02:49:49;;;;;;;;;1.00;0.00;;;;;9.29;53.49;100559.63;5012131;28;45409;-61
2022/01/05 02:52:15;;;;;;;;;2.75;2.00;;;;;9.27;53.85;100557.00;4996735;28;45519;-61
2022/01/05 02:54:43;;;;;;;;;2.00;1.00;;;;;9.27;54.15;100558.78;5015323;28;45431;-61
2022/01/05 02:57:09;;;;;;;;;2.25;0.50;;;;;9.28;54.11;100561.41;5019669;28;45313;-61
2022/01/05 02:59:34;;;;;;;;;0.75;0.25;;;;;9.28;53.73;100572.06;5025498;28;45243;-61
2022/01/05 03:01:59;;;;;;;;;1.00;0.00;;;;;9.25;53.60;100563.28;5019250;28;45742;-61
2022/01/05 03:04:26;;;;;;;;;3.00;2.00;;;;;9.25;53.91;100572.16;5018648;28;45356;-61
2022/01/05 03:06:52;;;;;;;;;1.75;1.75;;;;;9.24;53.87;100575.75;5019405;28;45459;-61
2022/01/05 03:09:17;;;;;;;;;1.00;1.00;;;;;9.24;53.66;100581.06;5006725;28;47004;-61
2022/01/05 03:11:43;;;;;;;;;1.25;1.25;;;;;9.15;53.75;100575.13;5019038;28;45482;-61
2022/01/05 03:14:08;;;;;;;;;0.25;0.25;;;;;9.17;53.40;100590.16;5018333;28;45471;-61
2022/01/05 03:16:33;;;;;;;;;0.75;0.75;;;;;9.12;53.41;100589.44;5028887;28;45304;-61
2022/01/05 03:18:58;;;;;;;;;1.00;1.00;;;;;9.12;53.50;100593.84;5019184;28;45492;-61
2022/01/05 03:21:24;;;;;;;;;1.25;1.25;;;;;9.09;53.89;100597.50;5019010;28;45608;-61
2022/01/05 03:23:49;;;;;;;;;2.75;0.00;;;;;9.07;53.64;100597.53;5017374;28;46414;-61
2022/01/05 03:26:14;;;;;;;;;1.00;1.00;;;;;9.07;53.76;100596.66;5016791;28;45396;-61
2022/01/05 03:28:40;;;;;;;;;2.25;1.75;;;;;9.04;53.78;100596.75;5017259;28;45442;-61
2022/01/05 03:31:05;;;;;;;;;2.25;1.00;;;;;9.06;53.93;100609.09;5019201;28;46135;-61
2022/01/05 03:33:31;;;;;;;;;1.00;0.25;;;;;9.04;53.67;100602.94;5021133;28;45554;-61
2022/01/05 03:35:56;;;;;;;;;3.75;1.00;;;;;9.08;53.88;100619.69;5018411;28;45257;-61
2022/01/05 03:38:23;;;;;;;;;1.75;1.75;;;;;9.07;54.02;100620.59;5009302;28;45179;-61
2022/01/05 03:40:48;;;;;;;;;1.00;0.25;;;;;9.08;53.84;100623.22;5018909;28;45312;-61
2022/01/05 03:43:14;;;;;;;;;1.00;0.00;;;;;9.09;53.39;100632.97;5018215;28;45915;-61
2022/01/05 03:45:41;;;;;;;;;2.25;0.50;;;;;9.10;53.39;100636.50;5019510;28;45309;-61
2022/01/05 03:48:10;;;;;;;;;1.50;1.50;;;;;9.08;53.85;100643.66;5017881;28;45384;-61
2022/01/05 03:50:36;;;;;;;;;6.00;1.00;;;;;9.04;53.92;100647.34;5024554;28;47480;-61
2022/01/05 03:53:03;;;;;;;;;4.50;2.75;;;;;9.01;53.52;100637.63;5019539;28;45166;-61
2022/01/05 03:55:29;;;;;;;;;4.00;1.00;;;;;9.04;53.73;100655.34;5019291;28;45307;-61
2022/01/05 03:57:54;;;;;;;;;1.00;0.00;;;;;9.02;53.83;100658.03;5013386;28;45348;-61
2022/01/05 04:00:20;;;;;;;;;1.00;1.00;;;;;9.04;53.72;100658.88;5019046;28;45443;-61
2022/01/05 04:02:45;;;;;;;;;2.00;1.00;;;;;9.04;53.51;100658.00;5018949;28;45348;-61
2022/01/05 04:05:11;;;;;;;;;2.00;2.00;;;;;9.06;53.29;100666.81;5022545;28;45479;-61
2022/01/05 04:07:36;;;;;;;;;2.25;0.50;;;;;9.07;53.38;100668.53;5005345;28;45815;-61
2022/01/05 04:10:02;;;;;;;;;1.75;1.00;;;;;9.04;53.75;100658.88;5006408;28;47051;-61
2022/01/05 04:12:28;;;;;;;;;2.50;2.50;;;;;9.02;53.42;100668.69;5018006;28;45600;-61
2022/01/05 04:14:53;;;;;;;;;1.00;1.00;;;;;8.98;53.76;100666.16;5013045;28;45370;-61
2022/01/05 04:17:18;;;;;;;;;2.75;1.75;;;;;8.99;53.65;100670.56;5015795;28;45276;-61
2022/01/05 04:19:44;;;;;;;;;4.50;2.00;;;;;8.99;54.11;100666.09;5009701;28;46181;-61
2022/01/05 04:22:09;;;;;;;;;1.50;1.25;;;;;8.98;53.60;100668.81;5025738;28;45287;-61
2022/01/05 04:24:34;;;;;;;;;1.00;0.00;;;;;8.99;53.96;100679.41;5004840;28;45884;-61
2022/01/05 04:27:00;;;;;;;;;3.00;2.00;;;;;9.00;54.02;100669.63;5013948;28;45573;-61
2022/01/05 04:29:25;;;;;;;;;2.00;0.75;;;;;9.00;54.11;100677.63;5004500;28;48426;-61
2022/01/05 04:31:51;;;;;;;;;1.25;1.00;;;;;9.00;53.35;100677.63;5022074;28;45246;-61
2022/01/05 04:34:16;;;;;;;;;4.50;1.25;;;;;8.99;53.79;100686.53;5022131;28;45388;-61
2022/01/05 04:36:41;;;;;;;;;1.50;1.00;;;;;8.96;53.77;100681.28;5021698;28;45494;-61
2022/01/05 04:39:07;;;;;;;;;3.00;1.00;;;;;8.96;53.78;100681.28;5013298;28;45348;-61
2022/01/05 04:41:32;;;;;;;;;1.00;1.00;;;;;8.96;53.87;100686.63;5020944;28;45395;-61
2022/01/05 04:43:58;;;;;;;;;1.00;1.00;;;;;8.93;53.68;100681.38;5000989;28;45459;-61
2022/01/05 04:46:23;;;;;;;;;2.00;2.00;;;;;8.94;53.65;100688.41;4994295;28;45564;-60
2022/01/05 04:48:48;;;;;;;;;0.50;0.50;;;;;8.89;53.45;100693.88;5012069;28;46697;-60
2022/01/05 04:51:14;;;;;;;;;2.00;0.50;;;;;8.90;53.62;100700.94;5012374;28;45266;-61
2022/01/05 04:53:39;;;;;;;;;7.00;2.00;;;;;8.85;53.37;100695.75;5001046;28;45242;-60
2022/01/05 04:56:04;;;;;;;;;1.00;1.00;;;;;8.80;53.26;100702.97;5023284;28;45566;-61
2022/01/05 04:58:31;;;;;;;;;1.00;0.25;;;;;8.76;53.61;100695.97;5001222;28;47358;-61
2022/01/05 05:00:56;;;;;;;;;2.00;1.00;;;;;8.80;53.25;100707.41;5022069;28;45430;-61
2022/01/05 05:03:22;;;;;;;;;2.00;2.00;;;;;8.81;53.53;100706.53;5020217;28;45309;-60
2022/01/05 05:05:47;;;;;;;;;2.25;2.00;;;;;8.75;53.54;100715.50;5021640;28;45363;-60
2022/01/05 05:08:12;;;;;;;;;3.00;1.00;;;;;8.73;53.40;100709.38;5004069;28;46987;-61
2022/01/05 05:10:38;;;;;;;;;1.00;1.00;;;;;8.74;53.75;100711.13;5021821;28;45392;-61
2022/01/05 05:13:10;;;;;;;;;2.00;1.00;;;;;8.70;53.61;100718.31;5033457;28;45365;-61
2022/01/05 05:15:36;;;;;;;;;0.50;0.50;;;;;8.70;53.29;100717.41;5020716;28;45668;-60
2022/01/05 05:18:02;;;;;;;;;1.50;0.50;;;;;8.66;53.79;100721.09;5013194;28;46297;-60
2022/01/05 05:20:28;;;;;;;;;0.00;0.00;;;;;8.65;53.55;100716.66;5021697;28;45401;-60
2022/01/05 05:22:53;;;;;;;;;3.00;0.75;;;;;8.72;53.68;100734.25;5002407;28;45328;-61
2022/01/05 05:25:18;;;;;;;;;1.25;1.00;;;;;8.69;53.84;100729.00;5021652;28;45416;-61
2022/01/05 05:27:44;;;;;;;;;4.00;0.25;;;;;8.76;53.72;100743.03;5021688;28;46096;-61
2022/01/05 05:30:10;;;;;;;;;1.00;1.00;;;;;8.70;53.74;100731.63;5021502;28;45461;-61
2022/01/05 05:32:35;;;;;;;;;1.00;1.00;;;;;8.75;53.82;100736.81;5021332;28;45565;-61
2022/01/05 05:35:01;;;;;;;;;2.00;2.00;;;;;8.74;53.47;100742.16;5020578;28;45371;-60
2022/01/05 05:37:26;;;;;;;;;2.00;0.50;;;;;8.74;53.29;100744.81;5014541;28;45382;-61
2022/01/05 05:39:51;;;;;;;;;1.00;1.00;;;;;8.74;53.56;100748.38;5015049;28;45257;-61
2022/01/05 05:42:17;;;;;;;;;4.00;1.00;;;;;8.65;53.43;100744.16;5020676;28;45502;-61
2022/01/05 05:44:42;;;;;;;;;1.00;1.00;;;;;8.76;53.79;100759.00;5011499;28;45427;-60
2022/01/05 05:47:08;;;;;;;;;2.50;2.50;;;;;8.74;53.42;100753.72;5014457;28;46111;-60
2022/01/05 05:49:33;;;;;;;;;3.00;1.00;;;;;8.71;53.32;100756.44;5014712;28;45402;-61
2022/01/05 05:51:59;;;;;;;;;2.25;0.25;;;;;8.76;53.57;100774.97;5021144;28;45214;-60
2022/01/05 05:54:24;;;;;;;;;2.00;1.00;;;;;8.73;53.82;100772.38;4992528;28;45580;-60
2022/01/05 05:56:49;;;;;;;;;1.75;1.50;;;;;8.73;53.61;100775.91;5017342;28;46176;-61
2022/01/05 05:59:15;;;;;;;;;0.25;0.25;;;;;8.73;53.55;100772.38;5011412;28;45296;-60
2022/01/05 06:01:40;;;;;;;;;2.00;1.00;;;;;8.70;53.28;100771.53;5023552;28;45597;-61
2022/01/05 06:04:06;;;;;;;;;2.00;1.00;;;;;8.66;53.62;100768.97;5013076;28;45487;-61
2022/01/05 06:06:31;;;;;;;;;2.25;1.00;;;;;8.65;53.97;100773.44;5013906;28;45695;-61
2022/01/05 06:08:57;;;;;;;;;1.00;1.00;;;;;8.62;53.80;100778.84;5011654;28;45427;-60
2022/01/05 06:11:22;;;;;;;;;1.00;1.00;;;;;8.58;53.84;100782.47;5020867;28;45439;-61
2022/01/05 06:13:49;;;;;;;;;0.00;0.00;;;;;8.57;54.19;100770.09;5015693;28;45399;-60
2022/01/05 06:16:15;;;;;;;;;5.00;1.25;;;;;8.61;53.97;100771.75;5014171;28;47270;-60
2022/01/05 06:18:40;;;;;;;;;1.00;1.00;;;;;8.57;53.98;100779.84;5011837;28;45421;-60
2022/01/05 06:21:06;;;;;;;;;2.50;1.00;;;;;8.51;54.12;100781.72;5020660;28;45528;-60
2022/01/05 06:23:31;;;;;;;;;6.50;4.00;;;;;8.57;53.67;100787.81;5019697;28;45336;-60
2022/01/05 06:25:56;;;;;;;;;1.00;1.00;;;;;8.51;53.87;100786.19;5019177;28;45338;-61
2022/01/05 06:28:22;;;;;;;;;1.00;1.00;;;;;8.57;53.75;100795.78;5005372;28;45563;-60
2022/01/05 06:30:47;;;;;;;;;1.00;1.00;;;;;8.58;53.82;100792.25;5005024;28;45474;-61
2022/01/05 06:33:13;;;;;;;;;2.00;1.00;;;;;8.48;54.05;100772.94;5018802;28;46067;-61
2022/01/05 06:35:38;;;;;;;;;1.25;1.25;;;;;8.58;54.24;100794.91;5008181;28;47060;-60
2022/01/05 06:38:04;;;;;;;;;1.00;1.00;;;;;8.58;54.12;100805.53;5012416;28;45392;-60
2022/01/05 06:40:29;;;;;;;;;2.00;1.00;;;;;8.56;54.07;100818.88;5018652;28;45527;-60
2022/01/05 06:42:54;;;;;;;;;0.00;0.00;;;;;8.49;54.30;100807.50;5020109;28;45470;-60
2022/01/05 06:45:20;;;;;;;;;3.00;1.00;;;;;8.53;54.27;100811.81;5010362;28;45343;-60
2022/01/05 06:47:46;;;;;;;;;1.25;0.50;;;;;8.51;54.21;100821.63;5018283;28;45700;-61
2022/01/05 06:50:11;;;;;;;;;1.50;1.00;;;;;8.48;54.56;100829.69;5021231;28;45391;-61
2022/01/05 06:52:38;;;;;;;;;1.00;0.00;;;;;8.51;54.11;100839.41;5020089;28;45435;-61
2022/01/05 06:55:04;;;;;;;;;2.00;2.00;;;;;8.49;54.12;100827.91;5014011;28;46198;-62
2022/01/05 06:57:30;;;;;;;;;2.75;0.25;;;;;8.51;54.14;100844.72;5016529;28;45418;-63
2022/01/05 06:59:55;;;;;;;;;1.75;1.50;;;;;8.49;54.43;100847.41;5020103;28;45267;-63
2022/01/05 07:02:20;;;;;;;;;3.00;0.75;;;;;8.43;54.47;100836.88;5019363;28;45367;-63
2022/01/05 07:04:46;;;;;;;;;1.00;1.00;;;;;8.51;54.40;100842.91;5018821;28;45139;-62
2022/01/05 07:07:11;;;;;;;;;1.00;1.00;;;;;8.48;54.13;100844.78;5009623;28;45357;-63
2022/01/05 07:09:37;;;;;;;;;1.50;1.25;;;;;8.43;54.60;100836.03;5017379;28;45264;-62
2022/01/05 07:12:03;;;;;;;;;18.25;14.50;;;;;8.50;54.64;100853.59;5019914;28;45265;-62
2022/01/05 07:14:28;;;;;;;;;1.25;1.25;;;;;8.48;54.53;100848.31;5019658;28;46610;-63
2022/01/05 07:16:53;;;;;;;;;2.00;2.00;;;;;8.51;54.64;100850.91;5012803;28;45305;-62
2022/01/05 07:19:20;;;;;;;;;1.00;1.00;;;;;8.51;54.67;100855.34;5015274;28;45250;-62
2022/01/05 07:21:46;;;;;;;;;6.00;2.00;;;;;8.46;54.68;100842.16;5018358;28;45216;-63
2022/01/05 07:24:14;;;;;;;;;1.00;1.00;;;;;8.46;54.76;100857.25;5002445;28;46380;-63
2022/01/05 07:26:40;;;;;;;;;4.25;2.00;;;;;8.48;54.81;100868.72;5019543;28;45396;-62
2022/01/05 07:29:06;;;;;;;;;1.00;0.50;;;;;8.48;54.62;100872.25;5020018;28;45840;-63
2022/01/05 07:31:31;;;;;;;;;1.75;0.00;;;;;8.45;54.51;100876.75;5018237;28;45561;-63
2022/01/05 07:33:56;;;;;;;;;0.75;0.75;;;;;8.44;54.62;100889.19;5017417;28;46103;-62
2022/01/05 07:36:22;;;;;;;;;2.25;1.25;;;;;8.40;54.31;100878.63;4998597;28;45336;-62
2022/01/05 07:38:47;;;;;;;;;1.50;0.00;;;;;8.42;54.60;100880.34;5016620;28;45484;-63
2022/01/05 07:41:12;;;;;;;;;2.25;1.00;;;;;8.43;54.47;100891.88;5018463;28;45519;-62
2022/01/05 07:43:38;;;;;;;;;1.00;1.00;;;;;8.41;54.61;100891.03;5022951;28;45362;-61
2022/01/05 07:46:03;;;;;;;;;2.75;2.00;;;;;8.39;54.67;100898.16;5019938;28;45459;-62
2022/01/05 07:48:28;;;;;;;;;3.00;2.00;;;;;8.34;54.67;100890.28;5009832;28;45314;-62
2022/01/05 07:50:54;;;;;;;;;3.00;1.00;;;;;8.36;54.87;100904.41;5021136;28;45397;-62
2022/01/05 07:53:20;;;;;;;;;1.00;1.00;;;;;8.37;54.82;100905.28;5021272;28;45437;-62
2022/01/05 07:55:45;;;;;;;;;0.75;0.75;;;;;8.36;54.95;100909.72;5009585;28;45692;-61
2022/01/05 07:58:11;;;;;;;;;1.75;0.75;;;;;8.35;55.05;100913.28;5020135;28;45506;-62
2022/01/05 08:00:37;;;;;;;;;1.00;1.00;;;;;8.35;54.88;100910.63;5020151;28;45569;-62
2022/01/05 08:03:02;;;;;;;;;2.00;1.25;;;;;8.34;55.16;100911.56;5021151;28;46499;-62
2022/01/05 08:05:28;;;;;;;;;1.50;1.50;;;;;8.35;54.67;100902.63;5017924;28;45608;-62
2022/01/05 08:07:53;;;;;;;;;6.25;2.25;;;;;8.32;54.98;100913.38;5020863;28;45379;-62
2022/01/05 08:10:18;;;;;;;;;1.00;1.00;;;;;8.33;54.82;100923.09;5016405;28;45421;-62
2022/01/05 08:12:44;;;;;;;;;3.50;0.00;;;;;8.30;54.94;100925.81;5002572;28;48118;-62
2022/01/05 08:15:10;;;;;;;;;1.75;0.50;;;;;8.27;54.98;100932.06;5020176;28;45409;-62
2022/01/05 08:17:35;;;;;;;;;3.00;0.25;;;;;8.29;54.90;100940.03;5019921;28;45384;-62
2022/01/05 08:20:03;;;;;;;;;0.25;0.25;;;;;8.29;54.92;100934.72;5007473;28;45750;-62
2022/01/05 08:22:28;;;;;;;;;2.00;1.75;;;;;8.24;55.15;100937.44;5015836;28;48328;-62
2022/01/05 08:24:53;;;;;;;;;3.50;0.75;;;;;8.29;55.25;100951.53;5023545;28;45514;-62
2022/01/05 08:27:19;;;;;;;;;3.75;1.25;;;;;8.25;55.30;100949.84;5004047;28;45547;-62
2022/01/05 08:29:44;;;;;;;;;1.00;1.00;;;;;8.20;55.11;100938.41;5003994;28;45757;-62
2022/01/05 08:32:09;;;;;;;;;2.00;1.50;;;;;8.21;55.33;100948.13;5021016;28;46272;-62
2022/01/05 08:34:35;;;;;;;;;0.00;0.00;;;;;8.20;55.37;100953.50;5027112;28;45474;-62
2022/01/05 08:37:00;;;;;;;;;1.00;1.00;;;;;8.21;55.20;100952.59;5031724;28;45685;-62
2022/01/05 08:39:26;;;;;;;;;1.00;1.00;;;;;8.18;55.46;100950.00;5028266;28;45697;-62
2022/01/05 08:41:51;;;;;;;;;0.25;0.25;;;;;8.22;55.61;100967.63;5025366;28;45533;-62
2022/01/05 08:44:17;;;;;;;;;2.50;1.75;;;;;8.23;55.47;100964.06;5019135;28;45775;-62
2022/01/05 08:46:42;;;;;;;;;2.75;1.00;;;;;8.21;55.14;100957.91;5018440;28;45523;-62
2022/01/05 08:49:10;;;;;;;;;2.00;1.00;;;;;8.22;55.26;100960.53;5004406;28;45563;-62
2022/01/05 08:51:37;;;;;;;;;1.00;1.00;;;;;8.15;55.39;100949.16;5009211;28;45475;-63
2022/01/05 08:54:02;;;;;;;;;1.00;1.00;;;;;8.18;55.53;100957.97;5019216;28;46040;-62
2022/01/05 08:56:27;;;;;;;;;2.50;1.00;;;;;8.16;55.63;100955.34;5012748;28;45810;-62
2022/01/05 08:58:54;;;;;;;;;2.25;1.00;;;;;8.23;55.54;100969.38;5007820;28;45461;-62
2022/01/05 09:01:19;;;;;;;;;3.00;2.75;;;;;8.21;55.58;100971.22;5016558;28;45515;-62
2022/01/05 09:03:45;;;;;;;;;2.00;1.75;;;;;8.22;55.67;100964.97;5019361;28;46438;-62
2022/01/05 09:06:10;;;;;;;;;3.25;1.75;;;;;8.19;55.41;100970.38;5020512;28;45352;-62
2022/01/05 09:08:37;;;;;;;;;3.00;3.00;;;;;8.25;55.11;100986.19;5018290;28;45530;-62
2022/01/05 09:11:03;;;;;;;;;2.00;2.00;;;;;8.26;55.51;100985.28;5020765;28;45372;-63
2022/01/05 09:13:28;;;;;;;;;2.00;2.00;;;;;8.14;55.73;100966.00;5016228;28;46835;-66
2022/01/05 09:15:54;;;;;;;;;3.25;2.00;;;;;8.23;55.88;100983.56;5011722;28;48683;-62
2022/01/05 09:18:19;;;;;;;;;1.75;1.75;;;;;8.15;55.93;100967.75;5010395;28;45722;-62
2022/01/05 09:20:45;;;;;;;;;6.00;2.00;;;;;8.21;55.48;100984.50;5015472;28;45397;-62
2022/01/05 09:23:10;;;;;;;;;1.00;1.00;;;;;8.24;55.86;100995.97;5019311;28;45496;-62
2022/01/05 09:25:36;;;;;;;;;2.00;1.50;;;;;8.25;55.71;100995.06;5013872;28;45751;-62
2022/01/05 09:28:02;;;;;;;;;1.25;1.25;;;;;8.26;55.92;100994.13;5011933;28;45605;-62
2022/01/05 09:30:28;;;;;;;;;3.00;2.00;;;;;8.28;55.88;100991.44;5017133;28;45454;-62
2022/01/05 09:32:54;;;;;;;;;2.50;1.75;;;;;8.27;55.78;100989.69;5018928;28;45908;-62
2022/01/05 09:35:22;;;;;;;;;2.75;1.00;;;;;8.30;55.92;101002.94;5016621;28;45461;-62
2022/01/05 09:43:03;;;;;;;;;1.00;1.00;;;;;8.33;55.69;101010.84;5018483;28;45525;-62
2022/01/05 09:45:33;;;;;;;;;3.00;3.00;;;;;8.37;55.83;101019.66;5014476;28;45438;-62
2022/01/05 09:48:44;;;;;;;;;3.00;2.25;;;;;8.38;56.15;101027.59;5018149;28;46602;-62
2022/01/05 09:51:10;;;;;;;;;2.75;2.75;;;;;8.43;56.32;101023.09;5008202;28;45567;-62
2022/01/05 09:53:36;;;;;;;;;2.25;2.25;;;;;8.45;55.94;101034.63;5019216;28;45810;-62
2022/01/05 09:56:04;;;;;;;;;2.75;2.75;;;;;8.38;56.15;101027.59;5019851;28;45517;-62
2022/01/05 09:58:30;;;;;;;;;2.75;0.00;;;;;8.44;55.92;101043.50;5017515;28;45456;-62
2022/01/05 10:00:56;;;;;;;;;3.50;2.25;;;;;8.45;55.93;101047.94;5015812;28;46315;-62
2022/01/05 10:03:22;;;;;;;;;2.00;1.25;;;;;8.49;55.88;101052.25;5010352;28;45432;-62
2022/01/05 10:05:47;;;;;;;;;3.25;1.75;;;;;8.49;55.80;101062.91;5019148;28;45427;-62
2022/01/05 10:08:13;;;;;;;;;2.00;2.00;;;;;8.50;56.05;101056.69;5009138;28;45443;-62
2022/01/05 10:10:40;;;;;;;;;3.75;1.75;;;;;8.53;55.97;101053.94;5014855;28;45581;-62
2022/01/05 10:13:05;;;;;;;;;6.25;4.00;;;;;8.52;56.23;101046.03;5014662;28;45317;-62
2022/01/05 10:15:30;;;;;;;;;5.00;2.00;;;;;8.52;55.95;101052.22;5019812;28;45380;-65
2022/01/05 10:18:17;;;;;;;;;3.75;1.75;;;;;8.62;56.01;101058.25;5020994;28;45341;-62
2022/01/05 10:21:01;;;;;;;;;3.50;2.75;;;;;8.59;55.67;101060.09;5014636;28;47326;-62
2022/01/05 10:23:33;;;;;;;;;2.25;1.75;;;;;8.63;55.83;101075.06;5015051;28;45489;-62
2022/01/05 10:26:26;;;;;;;;;2.00;2.00;;;;;8.59;55.71;101073.41;5019636;28;45213;-62
2022/01/05 10:28:57;;;;;;;;;2.00;2.00;;;;;8.60;56.17;101064.47;5014761;28;45523;-62
2022/01/05 10:31:26;;;;;;;;;1.00;0.75;;;;;8.63;55.91;101059.09;5013766;28;45888;-62
2022/01/05 10:33:52;;;;;;;;;3.25;2.25;;;;;8.67;55.90;101069.69;5019664;28;45379;-62
2022/01/05 10:36:18;;;;;;;;;3.25;2.00;;;;;8.70;55.76;101079.38;5001469;28;45434;-62
2022/01/05 10:38:58;;;;;;;;;9.00;4.00;;;;;8.71;55.97;101078.47;5018871;28;45633;-62
2022/01/05 10:41:30;;;;;;;;;2.50;1.50;;;;;8.70;55.79;101069.63;5012481;28;45598;-62
2022/01/05 10:44:15;;;;;;;;;7.00;3.00;;;;;8.77;56.16;101085.44;4996260;28;46148;-62
2022/01/05 10:47:03;;;;;;;;;2.00;2.00;;;;;8.77;55.49;101091.66;5008835;28;45447;-62
2022/01/05 10:49:32;;;;;;;;;2.50;1.00;;;;;8.82;55.46;101088.91;5012902;28;45546;-62
2022/01/05 10:52:22;;;;;;;;;2.00;2.00;;;;;8.83;55.37;101082.69;5018603;28;46246;-62
2022/01/05 10:54:49;;;;;;;;;2.75;1.00;;;;;8.82;55.57;101086.22;5017590;28;45823;-62
2022/01/05 10:57:15;;;;;;;;;3.50;1.00;;;;;8.83;55.63;101101.31;5016735;28;45494;-62
2022/01/05 10:59:45;;;;;;;;;2.00;2.00;;;;;8.78;55.38;101096.06;5018388;28;45427;-62
2022/01/05 11:02:30;;;;;;;;;1.50;1.50;;;;;8.78;55.43;101087.22;5014844;28;48406;-62
2022/01/05 11:05:13;;;;;;;;;3.00;2.00;;;;;8.79;55.41;101092.50;5018391;28;45656;-62
2022/01/05 11:07:42;;;;;;;;;0.00;0.00;;;;;8.81;55.14;101088.03;5014509;28;45631;-62
2022/01/05 11:10:10;;;;;;;;;2.50;2.00;;;;;8.83;55.45;101085.34;5011999;28;45419;-62
2022/01/05 11:12:41;;;;;;;;;4.00;2.00;;;;;8.85;55.13;101088.84;5014127;28;46057;-62
2022/01/05 11:15:22;;;;;;;;;6.00;2.00;;;;;8.86;55.32;101088.81;4999500;28;46413;-62
2022/01/05 11:18:08;;;;;;;;;1.25;1.25;;;;;8.93;55.48;101089.56;5016209;28;45349;-62
2022/01/05 11:20:55;;;;;;;;;2.25;2.25;;;;;8.95;54.91;101097.53;5015520;28;45701;-62
2022/01/05 11:23:26;;;;;;;;;3.50;1.00;;;;;8.97;55.03;101091.28;5016367;28;46387;-62
2022/01/05 11:25:54;;;;;;;;;3.00;1.00;;;;;8.98;54.77;101089.47;5017781;28;45746;-62
2022/01/05 11:28:22;;;;;;;;;1.00;1.00;;;;;9.02;55.35;101100.03;5018451;28;45350;-62
2022/01/05 11:30:50;;;;;;;;;2.00;1.50;;;;;9.05;55.05;101099.09;5017947;28;45440;-62
2022/01/05 11:33:17;;;;;;;;;1.75;1.75;;;;;9.04;55.49;101084.91;5016652;28;47528;-62
2022/01/05 11:35:43;;;;;;;;;1.50;1.50;;;;;9.05;55.35;101078.69;5010365;28;45524;-62
2022/01/05 11:38:10;;;;;;;;;3.25;2.00;;;;;9.08;55.46;101078.59;5003634;28;45562;-62